Terminal Aerodrome Forecast
Issued by NWS Detroit/Pontiac, MI

Home | Current Version | Previous Version | Text Only | Print | Product List | Glossary On
Versions: 1 2 3 4 5 6 7 8 9 10 11 12 13 14 15 16 17 18 19 20 21
000
FTUS43 KDTX 021129
TAFFNT
TAF
KFNT 021129Z 0212/0312 VRB04KT 6SM BR BKN012 OVC035
     FM021300 05007KT P6SM BKN040
     FM030100 04003KT P6SM SKC=

USA.gov is the U.S. government's official web portal to all federal, state and local government web resources and services.